Time;durP1;ratioP1;P1;durP2;ratioP2;P2;SDS_P1;SDS_P2;PMS_P1;PMS_P2;Temp;Humidity;BMP_temperature;BMP_pressure;BME280_temperature;BME280_humidity;BME280_pressure;Samples;Min_cycle;Max_cycle;Signal;HPM_P1;HPM_P2
2021/10/17 00:01:21;;;;;;;52.10;28.40;;;10.00;99.90;;;;;;6156214;23;20013;-87
2021/10/17 00:03:47;;;;;;;42.72;27.25;;;10.00;99.90;;;;;;6182565;23;20548;-87
2021/10/17 00:06:13;;;;;;;44.53;25.23;;;10.00;99.90;;;;;;6182326;23;20088;-87
2021/10/17 00:08:38;;;;;;;42.42;25.92;;;10.00;99.90;;;;;;6182325;23;19997;-87
2021/10/17 00:11:04;;;;;;;43.88;25.15;;;9.90;99.90;;;;;;6182895;23;20001;-87
2021/10/17 00:13:30;;;;;;;38.42;23.50;;;9.90;99.90;;;;;;6182511;23;20001;-86
2021/10/17 00:15:55;;;;;;;37.42;23.92;;;9.90;99.90;;;;;;6156015;23;20013;-87
2021/10/17 00:18:24;;;;;;;37.75;21.73;;;9.90;99.90;;;;;;6182489;23;19997;-87
2021/10/17 00:20:50;;;;;;;38.08;21.00;;;9.90;99.90;;;;;;6182378;23;20013;-87
2021/10/17 00:23:16;;;;;;;33.33;20.73;;;9.90;99.90;;;;;;6182326;23;20006;-87
2021/10/17 00:25:41;;;;;;;34.60;19.38;;;9.90;99.90;;;;;;6182262;23;20036;-87
2021/10/17 00:28:07;;;;;;;32.38;19.30;;;9.80;99.90;;;;;;6182378;23;20048;-87
2021/10/17 00:30:33;;;;;;;29.55;19.20;;;9.80;99.90;;;;;;6182132;23;20484;-87
2021/10/17 00:32:59;;;;;;;32.05;19.73;;;9.80;99.90;;;;;;6182444;23;20032;-87
2021/10/17 00:35:25;;;;;;;27.65;18.30;;;9.80;99.90;;;;;;6182338;23;20157;-87
2021/10/17 00:37:50;;;;;;;28.35;18.17;;;9.80;99.90;;;;;;6155642;23;20001;-87
2021/10/17 00:40:18;;;;;;;32.13;16.77;;;9.80;99.90;;;;;;6155604;23;20071;-87
2021/10/17 00:42:47;;;;;;;24.00;16.77;;;9.80;99.90;;;;;;6155026;23;20007;-87
2021/10/17 00:45:16;;;;;;;22.88;16.23;;;9.80;99.90;;;;;;6182540;23;20326;-87
2021/10/17 00:47:42;;;;;;;26.92;17.67;;;9.90;99.90;;;;;;6155628;23;20540;-87
2021/10/17 00:50:09;;;;;;;24.25;16.52;;;9.80;99.90;;;;;;6181838;23;20029;-87
2021/10/17 00:52:36;;;;;;;26.25;16.42;;;9.80;99.90;;;;;;6182112;23;20001;-86
2021/10/17 00:55:04;;;;;;;24.60;16.20;;;9.80;99.90;;;;;;6182812;23;20001;-87
2021/10/17 00:57:31;;;;;;;24.48;16.15;;;9.80;99.90;;;;;;6155379;23;20214;-87
2021/10/17 00:59:56;;;;;;;24.10;16.30;;;9.80;99.90;;;;;;6155727;23;20083;-87
2021/10/17 01:02:22;;;;;;;31.50;17.02;;;9.80;99.90;;;;;;6181612;23;20349;-86
2021/10/17 01:04:48;;;;;;;25.77;16.63;;;9.70;99.90;;;;;;6182511;23;20385;-87
2021/10/17 01:07:13;;;;;;;26.02;15.73;;;9.70;99.90;;;;;;6182187;23;20450;-87
2021/10/17 01:09:39;;;;;;;20.92;14.80;;;9.70;99.90;;;;;;6155509;23;20012;-87
2021/10/17 01:12:06;;;;;;;21.70;15.10;;;9.80;99.90;;;;;;6155692;23;20299;-87
2021/10/17 01:14:32;;;;;;;20.45;14.57;;;9.80;99.90;;;;;;6181759;23;20083;-87
2021/10/17 01:16:58;;;;;;;20.70;14.30;;;9.80;99.90;;;;;;6182361;23;20005;-87
2021/10/17 01:19:24;;;;;;;21.40;13.95;;;9.80;99.90;;;;;;6182378;23;20001;-86
2021/10/17 01:21:50;;;;;;;22.42;14.02;;;9.80;99.90;;;;;;6181722;23;20493;-87
2021/10/17 01:24:17;;;;;;;19.85;13.13;;;9.90;99.90;;;;;;6181974;23;20080;-88
2021/10/17 01:26:44;;;;;;;18.92;12.93;;;9.90;99.90;;;;;;6181805;23;20045;-87
2021/10/17 01:29:10;;;;;;;19.27;13.88;;;9.90;99.90;;;;;;6154907;23;20067;-87
2021/10/17 01:31:39;;;;;;;19.05;12.80;;;9.90;99.90;;;;;;6181683;23;20085;-87
2021/10/17 01:34:06;;;;;;;21.33;13.25;;;9.90;99.90;;;;;;6155377;23;20012;-87
2021/10/17 01:36:37;;;;;;;18.58;14.00;;;9.90;99.90;;;;;;6181614;23;20080;-87
2021/10/17 01:39:04;;;;;;;18.80;13.13;;;9.90;99.90;;;;;;6181384;23;20008;-86
2021/10/17 01:41:30;;;;;;;19.20;13.32;;;9.90;99.90;;;;;;6181898;23;20051;-87
2021/10/17 01:44:10;;;;;;;20.38;13.45;;;10.00;99.90;;;;;;6181625;23;19997;-87
2021/10/17 01:46:36;;;;;;;18.15;13.15;;;10.00;99.90;;;;;;6181782;23;20078;-88
2021/10/17 01:49:05;;;;;;;18.13;13.00;;;10.00;99.90;;;;;;6182115;23;20004;-87
2021/10/17 01:51:31;;;;;;;18.95;12.52;;;10.00;99.90;;;;;;6181595;23;20028;-87
2021/10/17 01:53:57;;;;;;;20.52;12.75;;;9.90;99.90;;;;;;6155319;23;20028;-87
2021/10/17 01:56:23;;;;;;;17.77;11.63;;;9.90;99.90;;;;;;6181379;23;20005;-86
2021/10/17 01:58:49;;;;;;;17.58;11.85;;;9.90;99.90;;;;;;6154877;23;20485;-87
2021/10/17 02:01:15;;;;;;;20.58;12.52;;;10.00;99.90;;;;;;6181619;23;20013;-87
2021/10/17 02:03:41;;;;;;;22.45;12.13;;;10.00;99.90;;;;;;6183552;23;20001;-87
2021/10/17 02:06:06;;;;;;;17.02;11.98;;;9.90;99.90;;;;;;6183643;23;20036;-87
2021/10/17 02:08:32;;;;;;;17.27;12.00;;;9.90;99.90;;;;;;6157008;23;20446;-87
2021/10/17 02:10:58;;;;;;;18.67;11.30;;;9.90;99.90;;;;;;6156999;23;20005;-88
2021/10/17 02:13:25;;;;;;;17.90;12.25;;;9.90;99.90;;;;;;6182815;23;20090;-86
2021/10/17 02:15:51;;;;;;;18.42;11.63;;;9.90;99.90;;;;;;6132649;23;20009;-87
2021/10/17 02:18:16;;;;;;;16.20;11.98;;;9.80;99.90;;;;;;6157262;23;20005;-87
2021/10/17 02:20:43;;;;;;;15.48;11.85;;;9.80;99.90;;;;;;6183480;23;20013;-87
2021/10/17 02:23:08;;;;;;;18.90;11.40;;;9.80;99.90;;;;;;6183495;23;19997;-87
2021/10/17 02:25:34;;;;;;;21.60;12.10;;;9.80;99.90;;;;;;6183639;23;20005;-87
2021/10/17 02:28:01;;;;;;;15.50;11.52;;;9.80;99.90;;;;;;6183372;23;19998;-87
2021/10/17 02:30:27;;;;;;;22.05;12.05;;;9.80;99.90;;;;;;6183055;23;20514;-87
2021/10/17 02:32:53;;;;;;;17.70;12.38;;;9.80;99.90;;;;;;6183566;23;20008;-87
2021/10/17 02:35:19;;;;;;;17.00;11.57;;;9.80;99.90;;;;;;6156661;23;20009;-87
2021/10/17 02:37:45;;;;;;;18.20;11.93;;;9.80;99.90;;;;;;6183271;23;20469;-88
2021/10/17 02:40:11;;;;;;;15.30;11.38;;;9.80;99.90;;;;;;6183048;23;20083;-88
2021/10/17 02:42:37;;;;;;;15.75;11.70;;;9.90;99.90;;;;;;6183606;23;20009;-87
2021/10/17 02:45:04;;;;;;;15.65;11.80;;;9.90;99.90;;;;;;6156601;23;20007;-86
2021/10/17 02:47:30;;;;;;;14.57;10.75;;;9.90;99.90;;;;;;6156578;23;20388;-87
2021/10/17 02:49:56;;;;;;;14.85;10.95;;;9.80;99.90;;;;;;6183703;23;20184;-86
2021/10/17 02:52:22;;;;;;;18.23;11.65;;;9.80;99.90;;;;;;6183252;23;20135;-87
2021/10/17 02:54:47;;;;;;;15.45;10.85;;;9.80;99.90;;;;;;6183260;23;20311;-87
2021/10/17 02:57:13;;;;;;;16.90;10.95;;;9.80;99.90;;;;;;6156585;23;20005;-86
2021/10/17 02:59:39;;;;;;;15.95;11.27;;;9.80;99.90;;;;;;6156976;23;20095;-87
2021/10/17 03:02:04;;;;;;;15.80;11.88;;;9.80;99.90;;;;;;6183196;23;20013;-89
2021/10/17 03:04:30;;;;;;;15.20;11.00;;;9.80;99.90;;;;;;6183238;23;20500;-88
2021/10/17 03:06:56;;;;;;;17.58;11.10;;;9.80;99.90;;;;;;6182927;23;20016;-87
2021/10/17 03:09:22;;;;;;;17.90;12.15;;;9.80;99.90;;;;;;6183157;23;20036;-87
2021/10/17 03:11:47;;;;;;;16.42;11.55;;;9.90;99.90;;;;;;6183039;23;20002;-87
2021/10/17 03:14:13;;;;;;;17.90;10.90;;;9.80;99.90;;;;;;6181841;23;20106;-87
2021/10/17 03:16:41;;;;;;;17.77;11.48;;;9.80;99.90;;;;;;6183045;23;20520;-87
2021/10/17 03:19:08;;;;;;;14.32;10.48;;;9.80;99.90;;;;;;6183393;23;20008;-87
2021/10/17 03:21:34;;;;;;;16.58;12.00;;;9.80;99.90;;;;;;6156389;23;20068;-87
2021/10/17 03:23:59;;;;;;;16.23;11.45;;;9.80;99.90;;;;;;6156495;23;20426;-87
2021/10/17 03:26:25;;;;;;;14.60;10.75;;;9.80;99.90;;;;;;6182900;23;20501;-87
2021/10/17 03:28:51;;;;;;;15.57;11.40;;;9.80;99.90;;;;;;6182620;23;20013;-87
2021/10/17 03:31:17;;;;;;;15.10;11.50;;;9.80;99.90;;;;;;6155924;23;20086;-87
2021/10/17 03:33:42;;;;;;;14.80;10.75;;;9.80;99.90;;;;;;6182844;23;20444;-87
2021/10/17 03:36:08;;;;;;;17.02;10.77;;;9.70;99.90;;;;;;6183141;23;20497;-87
2021/10/17 03:38:34;;;;;;;13.95;10.38;;;9.70;99.90;;;;;;6182681;23;20072;-87
2021/10/17 03:40:59;;;;;;;18.38;10.63;;;9.70;99.90;;;;;;6182614;23;20091;-87
2021/10/17 03:43:25;;;;;;;17.30;10.75;;;9.70;99.90;;;;;;6182506;23;20017;-87
2021/10/17 03:45:51;;;;;;;14.02;10.05;;;9.70;99.90;;;;;;6181950;23;20004;-87
2021/10/17 03:48:16;;;;;;;14.15;10.77;;;9.70;99.90;;;;;;6182654;23;20064;-87
2021/10/17 03:50:42;;;;;;;13.82;10.60;;;9.70;99.90;;;;;;6156841;23;20004;-87
2021/10/17 03:53:08;;;;;;;13.57;10.40;;;9.70;99.90;;;;;;6182178;23;20024;-87
2021/10/17 03:55:33;;;;;;;14.57;10.60;;;9.70;99.90;;;;;;6182418;23;20341;-86
2021/10/17 03:58:00;;;;;;;14.95;10.65;;;9.70;99.90;;;;;;6182548;23;20315;-87
2021/10/17 04:00:27;;;;;;;15.60;10.50;;;9.70;99.90;;;;;;6182382;23;20346;-87
2021/10/17 04:02:53;;;;;;;16.17;11.23;;;9.70;99.90;;;;;;6182414;23;20043;-87
2021/10/17 04:05:19;;;;;;;17.63;10.65;;;9.70;99.90;;;;;;6156219;23;20032;-87
2021/10/17 04:07:45;;;;;;;15.88;9.68;;;9.70;99.90;;;;;;6183275;23;20331;-87
2021/10/17 04:10:11;;;;;;;14.80;10.05;;;9.70;99.90;;;;;;6182565;23;20469;-88
2021/10/17 04:12:37;;;;;;;17.10;9.52;;;9.80;99.90;;;;;;6182495;23;20059;-87
2021/10/17 04:15:03;;;;;;;12.68;10.02;;;9.80;99.90;;;;;;6182356;23;20001;-87
2021/10/17 04:17:29;;;;;;;13.50;10.30;;;9.70;99.90;;;;;;6182665;23;19997;-87
2021/10/17 04:19:54;;;;;;;19.27;10.35;;;9.70;99.90;;;;;;6155862;23;20056;-88
2021/10/17 04:22:20;;;;;;;15.35;9.95;;;9.70;99.90;;;;;;6182055;23;20068;-87
2021/10/17 04:24:46;;;;;;;11.88;9.50;;;9.70;99.90;;;;;;6156163;23;20005;-87
2021/10/17 04:27:12;;;;;;;13.05;9.55;;;9.70;99.90;;;;;;6182210;23;20512;-87
2021/10/17 04:29:39;;;;;;;13.82;9.55;;;9.70;99.90;;;;;;6156104;23;20004;-87
2021/10/17 04:32:06;;;;;;;14.75;10.63;;;9.70;99.90;;;;;;6182223;23;20001;-87
2021/10/17 04:34:32;;;;;;;16.48;10.43;;;9.80;99.90;;;;;;6182027;23;20068;-86
2021/10/17 04:36:58;;;;;;;16.63;10.93;;;9.70;99.90;;;;;;6182169;23;20025;-88
2021/10/17 04:39:24;;;;;;;13.73;9.27;;;9.80;99.90;;;;;;6181946;23;20012;-87
2021/10/17 04:41:50;;;;;;;15.50;9.95;;;9.70;99.90;;;;;;6181859;23;20017;-87
2021/10/17 04:44:15;;;;;;;15.57;10.95;;;9.80;99.90;;;;;;6181968;23;19997;-87
2021/10/17 04:46:41;;;;;;;16.80;10.27;;;9.80;99.90;;;;;;6181716;23;20012;-87
2021/10/17 04:49:07;;;;;;;15.05;10.77;;;9.80;99.90;;;;;;6182081;23;20321;-87
2021/10/17 04:51:33;;;;;;;15.05;10.50;;;9.80;99.90;;;;;;6155678;23;20072;-87
2021/10/17 04:53:59;;;;;;;13.35;9.68;;;9.80;99.90;;;;;;6155532;23;20009;-87
2021/10/17 04:56:24;;;;;;;14.20;10.25;;;9.80;99.90;;;;;;6181760;23;20008;-87
2021/10/17 04:58:50;;;;;;;12.07;9.98;;;9.80;99.90;;;;;;6155310;23;20001;-88
2021/10/17 05:01:16;;;;;;;14.65;10.30;;;9.80;99.90;;;;;;6181964;23;20020;-87
2021/10/17 05:03:42;;;;;;;13.60;10.85;;;9.80;99.90;;;;;;6155787;23;20476;-87
2021/10/17 05:06:10;;;;;;;14.82;10.65;;;9.80;99.90;;;;;;6182144;23;20027;-87
2021/10/17 05:08:36;;;;;;;14.30;10.60;;;9.80;99.90;;;;;;6181945;23;20370;-87
2021/10/17 05:11:02;;;;;;;14.98;10.55;;;9.80;99.90;;;;;;6182295;23;20005;-87
2021/10/17 05:13:28;;;;;;;15.02;10.80;;;9.80;99.90;;;;;;6181555;23;20341;-87
2021/10/17 05:15:54;;;;;;;15.05;10.30;;;9.70;99.90;;;;;;6181521;23;20319;-87
2021/10/17 05:18:20;;;;;;;18.42;12.60;;;9.80;99.90;;;;;;6181726;23;19997;-86
2021/10/17 05:20:45;;;;;;;14.05;10.02;;;9.70;99.90;;;;;;6181749;23;20084;-87
2021/10/17 05:23:11;;;;;;;15.23;10.90;;;9.80;99.90;;;;;;6182598;23;20007;-87
2021/10/17 05:25:37;;;;;;;13.85;9.98;;;9.80;99.90;;;;;;6155292;23;20005;-87
2021/10/17 05:28:03;;;;;;;16.88;10.70;;;9.80;99.90;;;;;;6182227;23;20246;-87
2021/10/17 05:30:32;;;;;;;13.27;9.95;;;9.80;99.90;;;;;;6181658;23;20307;-87
2021/10/17 05:32:58;;;;;;;14.32;10.07;;;9.80;99.90;;;;;;6183016;23;20005;-92
2021/10/17 05:35:24;;;;;;;18.05;11.80;;;9.80;99.90;;;;;;6156812;23;20001;-92
2021/10/17 05:37:50;;;;;;;15.30;10.10;;;9.80;99.90;;;;;;6156436;23;20019;-93
2021/10/17 05:40:15;;;;;;;13.40;9.70;;;9.80;99.90;;;;;;6156544;23;20028;-93
2021/10/17 05:42:41;;;;;;;15.23;9.52;;;9.80;99.90;;;;;;6183190;23;20005;-92
2021/10/17 05:45:08;;;;;;;15.15;10.68;;;9.80;99.90;;;;;;6156195;23;20092;-92
2021/10/17 05:47:34;;;;;;;13.93;10.60;;;9.80;99.90;;;;;;6155974;23;20005;-91
2021/10/17 05:50:00;;;;;;;15.20;10.15;;;9.80;99.90;;;;;;6155466;23;20016;-91
2021/10/17 05:52:26;;;;;;;13.27;10.23;;;9.80;99.90;;;;;;6156021;23;20084;-92
2021/10/17 05:54:52;;;;;;;14.38;10.15;;;9.80;99.90;;;;;;6155686;23;20276;-92
2021/10/17 05:57:18;;;;;;;13.82;10.30;;;9.80;99.90;;;;;;6155517;23;20300;-90
2021/10/17 05:59:43;;;;;;;16.08;10.75;;;9.80;99.90;;;;;;6155638;23;20426;-91
2021/10/17 06:02:13;;;;;;;12.73;10.23;;;9.80;99.90;;;;;;6155480;23;20028;-91
2021/10/17 06:04:38;;;;;;;15.77;10.88;;;9.80;99.90;;;;;;6155596;23;20001;-91
2021/10/17 06:07:04;;;;;;;19.63;10.68;;;9.80;99.90;;;;;;6155549;23;20350;-91
2021/10/17 06:09:38;;;;;;;16.30;10.40;;;9.80;99.90;;;;;;6155463;23;20005;-91
2021/10/17 06:12:05;;;;;;;13.57;10.43;;;9.80;99.90;;;;;;6181601;23;19997;-89
2021/10/17 06:14:31;;;;;;;12.93;10.15;;;9.80;99.90;;;;;;6181556;23;20005;-89
2021/10/17 06:16:57;;;;;;;13.18;10.00;;;9.80;99.90;;;;;;6184850;23;20032;-90
2021/10/17 06:19:23;;;;;;;13.20;9.85;;;9.80;99.90;;;;;;6155494;23;20063;-90
2021/10/17 06:21:49;;;;;;;16.33;9.70;;;9.80;99.90;;;;;;6181791;23;20017;-91
2021/10/17 06:24:15;;;;;;;15.75;10.52;;;9.80;99.90;;;;;;6155513;23;20008;-91
2021/10/17 06:26:42;;;;;;;16.70;10.23;;;9.80;99.90;;;;;;6155221;23;20088;-91
2021/10/17 06:29:10;;;;;;;15.02;10.35;;;9.80;99.90;;;;;;6181485;23;19997;-90
2021/10/17 06:31:36;;;;;;;16.10;11.23;;;9.80;99.90;;;;;;6155027;23;20350;-91
2021/10/17 06:34:02;;;;;;;15.80;10.93;;;9.80;99.90;;;;;;6155285;23;20052;-90
2021/10/17 06:36:28;;;;;;;18.02;12.63;;;9.80;99.90;;;;;;6155901;23;20009;-91
2021/10/17 06:38:53;;;;;;;21.88;14.40;;;9.80;99.90;;;;;;6155540;23;20008;-91
2021/10/17 06:41:19;;;;;;;18.27;13.25;;;9.80;99.90;;;;;;6155157;23;20017;-91
2021/10/17 06:43:45;;;;;;;20.00;14.60;;;9.90;99.90;;;;;;6155253;23;20005;-91
2021/10/17 06:46:10;;;;;;;20.58;13.95;;;9.90;99.90;;;;;;6180797;23;20005;-91
2021/10/17 06:48:36;;;;;;;21.73;15.00;;;9.90;99.90;;;;;;6156232;23;20448;-90
2021/10/17 06:51:02;;;;;;;22.75;14.30;;;9.90;99.90;;;;;;6157048;23;20009;-91
2021/10/17 06:53:28;;;;;;;17.80;12.77;;;9.90;99.90;;;;;;6183829;23;20024;-91
2021/10/17 06:55:54;;;;;;;20.65;14.02;;;9.90;99.90;;;;;;6157381;23;20422;-91
2021/10/17 06:58:19;;;;;;;18.63;12.85;;;10.00;99.90;;;;;;6157267;23;20083;-91
2021/10/17 07:00:45;;;;;;;16.23;12.50;;;10.00;99.90;;;;;;6157435;23;20323;-91
2021/10/17 07:03:11;;;;;;;15.23;12.15;;;10.10;99.90;;;;;;6184471;23;19997;-93
2021/10/17 07:05:37;;;;;;;15.23;12.27;;;10.10;99.90;;;;;;6184267;23;20005;-91
2021/10/17 07:08:02;;;;;;;16.40;12.07;;;10.10;99.90;;;;;;6158259;23;20005;-91
2021/10/17 07:10:28;;;;;;;14.27;11.65;;;10.20;99.90;;;;;;6158559;23;20168;-91
2021/10/17 07:12:54;;;;;;;17.05;11.30;;;10.20;99.90;;;;;;6158257;23;20040;-92
2021/10/17 07:15:19;;;;;;;12.50;10.60;;;10.20;99.90;;;;;;6184709;23;20012;-91
2021/10/17 07:17:45;;;;;;;16.23;11.57;;;10.20;99.90;;;;;;6183303;23;20005;-92
2021/10/17 07:20:11;;;;;;;16.05;10.63;;;10.30;99.90;;;;;;6157156;23;20012;-92
2021/10/17 07:22:39;;;;;;;14.93;10.75;;;10.40;99.90;;;;;;6157278;23;20498;-92
2021/10/17 07:25:05;;;;;;;14.20;10.43;;;10.50;99.90;;;;;;6183727;23;20028;-92
2021/10/17 07:27:31;;;;;;;14.40;10.90;;;10.60;99.90;;;;;;6157177;23;20349;-92
2021/10/17 07:29:57;;;;;;;14.85;11.60;;;10.60;99.90;;;;;;6157042;23;20013;-91
2021/10/17 07:32:22;;;;;;;15.70;11.18;;;10.70;99.90;;;;;;6157384;23;20009;-92
2021/10/17 07:34:48;;;;;;;14.10;10.90;;;10.80;99.90;;;;;;6183498;23;20008;-91
2021/10/17 07:37:14;;;;;;;20.98;11.80;;;10.90;99.90;;;;;;6156888;23;20004;-92
2021/10/17 07:39:39;;;;;;;14.05;11.02;;;11.10;99.90;;;;;;6156983;23;20009;-90
2021/10/17 07:42:05;;;;;;;16.45;11.82;;;11.10;99.90;;;;;;6156263;23;20412;-91
2021/10/17 07:44:31;;;;;;;15.60;11.25;;;11.10;99.90;;;;;;6156865;23;20163;-91
2021/10/17 07:46:58;;;;;;;14.85;11.30;;;11.20;99.90;;;;;;6182896;23;20008;-92
2021/10/17 07:49:23;;;;;;;18.95;10.50;;;11.30;99.90;;;;;;6156801;23;20500;-92
2021/10/17 07:51:49;;;;;;;13.82;10.52;;;11.40;99.90;;;;;;6157070;23;20129;-92
2021/10/17 07:54:15;;;;;;;15.52;10.38;;;11.50;99.90;;;;;;6157026;23;20080;-91
2021/10/17 07:56:41;;;;;;;13.05;9.65;;;11.70;99.90;;;;;;6183171;23;19997;-91
2021/10/17 07:59:06;;;;;;;14.75;11.35;;;11.80;99.90;;;;;;6157295;23;20008;-91
2021/10/17 08:01:32;;;;;;;13.98;10.32;;;11.90;99.90;;;;;;6156253;23;20442;-92
2021/10/17 08:03:58;;;;;;;12.90;9.85;;;11.90;99.90;;;;;;6183427;23;20289;-91
2021/10/17 08:06:23;;;;;;;13.57;9.32;;;12.00;99.90;;;;;;6183742;23;20058;-93
2021/10/17 08:08:49;;;;;;;14.35;9.43;;;12.10;99.90;;;;;;6183244;23;20438;-92
2021/10/17 08:11:16;;;;;;;11.82;9.77;;;12.20;99.90;;;;;;6156844;23;19998;-91
2021/10/17 08:13:42;;;;;;;12.13;9.15;;;12.20;99.90;;;;;;6156464;23;20005;-91
2021/10/17 08:16:08;;;;;;;26.83;18.20;;;12.20;99.90;;;;;;6156472;23;20009;-92
2021/10/17 08:18:34;;;;;;;14.50;11.00;;;12.30;99.90;;;;;;6156089;23;20402;-92
2021/10/17 08:20:59;;;;;;;14.15;11.57;;;12.40;99.90;;;;;;6156580;23;20021;-92
2021/10/17 08:23:25;;;;;;;18.08;12.40;;;12.40;99.90;;;;;;6157003;23;20001;-92
2021/10/17 08:25:51;;;;;;;15.88;10.00;;;12.40;99.90;;;;;;6182984;23;20011;-91
2021/10/17 08:28:17;;;;;;;11.50;9.50;;;12.20;99.90;;;;;;6156452;23;20005;-92
2021/10/17 08:30:45;;;;;;;14.32;9.27;;;12.20;99.90;;;;;;6156322;23;20021;-92
2021/10/17 08:33:11;;;;;;;16.80;11.00;;;12.20;99.90;;;;;;6156385;23;20445;-92
2021/10/17 08:35:37;;;;;;;15.07;10.88;;;12.20;99.90;;;;;;6182721;23;20240;-91
2021/10/17 08:38:03;;;;;;;14.68;9.98;;;12.20;99.90;;;;;;6156427;23;20394;-92
2021/10/17 08:40:28;;;;;;;13.82;11.02;;;12.20;99.90;;;;;;6156348;23;20024;-92
2021/10/17 08:42:54;;;;;;;14.23;10.18;;;12.30;99.90;;;;;;6156308;23;20342;-91
2021/10/17 08:45:20;;;;;;;14.13;9.35;;;12.40;99.90;;;;;;6156528;23;20005;-92
2021/10/17 08:47:46;;;;;;;11.95;9.25;;;12.50;99.90;;;;;;6156454;23;20013;-91
2021/10/17 08:50:15;;;;;;;12.18;9.75;;;12.60;99.90;;;;;;6156637;23;20016;-92
2021/10/17 08:52:42;;;;;;;14.63;10.45;;;12.70;99.90;;;;;;6156315;23;20001;-91
2021/10/17 08:55:08;;;;;;;13.65;9.40;;;12.80;99.90;;;;;;6182826;23;20001;-91
2021/10/17 08:57:34;;;;;;;14.35;10.38;;;12.90;99.90;;;;;;6182585;23;20004;-93
2021/10/17 09:00:00;;;;;;;11.75;8.80;;;13.00;99.90;;;;;;6156203;23;20009;-92
2021/10/17 09:02:26;;;;;;;11.93;9.40;;;13.10;99.90;;;;;;6156411;23;20009;-91
2021/10/17 09:05:07;;;;;;;11.65;8.88;;;13.30;99.90;;;;;;6182619;23;20008;-92
2021/10/17 09:07:34;;;;;;;11.48;8.88;;;13.40;99.90;;;;;;6155946;23;20005;-92
2021/10/17 09:10:14;;;;;;;11.32;7.97;;;13.50;99.90;;;;;;6182577;23;20005;-93
2021/10/17 09:12:42;;;;;;;11.43;8.15;;;13.60;99.90;;;;;;6155406;23;20013;-92
2021/10/17 09:15:28;;;;;;;10.95;8.15;;;13.70;99.90;;;;;;6168184;23;20031;-92
2021/10/17 09:18:14;;;;;;;11.13;8.15;;;13.80;99.90;;;;;;6181798;23;20477;-92
2021/10/17 09:20:46;;;;;;;10.27;7.57;;;13.80;99.90;;;;;;6182288;23;20016;-92
2021/10/17 09:23:16;;;;;;;11.55;7.78;;;13.80;99.90;;;;;;6156087;23;20016;-92
2021/10/17 09:25:42;;;;;;;12.32;8.93;;;13.80;99.90;;;;;;6155785;23;20001;-91
2021/10/17 09:28:18;;;;;;;12.20;8.65;;;13.90;99.90;;;;;;6155925;23;20005;-92
2021/10/17 09:31:00;;;;;;;11.73;8.57;;;14.10;99.90;;;;;;6182297;23;20016;-91
2021/10/17 09:33:26;;;;;;;10.75;8.30;;;14.30;99.90;;;;;;6156078;23;20011;-92
2021/10/17 09:35:53;;;;;;;11.20;7.47;;;14.50;99.90;;;;;;6155816;23;20084;-94
2021/10/17 09:38:22;;;;;;;11.18;7.60;;;14.70;99.90;;;;;;6155865;23;20456;-91
2021/10/17 09:40:48;;;;;;;10.38;7.57;;;14.90;99.90;;;;;;6155881;23;20450;-92
2021/10/17 09:43:24;;;;;;;9.93;7.75;;;15.10;99.90;;;;;;6156100;23;20005;-92
2021/10/17 09:45:50;;;;;;;11.15;7.55;;;15.30;99.90;;;;;;6182298;23;20012;-91
2021/10/17 09:48:45;;;;;;;9.45;6.88;;;15.50;99.90;;;;;;6181609;23;20002;-91
2021/10/17 09:51:12;;;;;;;;;;;15.80;99.90;;;;;;6117558;23;20009;-91
2021/10/17 09:53:47;;;;;;;8.35;7.00;;;16.00;99.90;;;;;;6155692;23;19907;-91
2021/10/17 09:56:29;;;;;;;9.02;6.50;;;16.10;99.90;;;;;;6182631;23;20008;-92
2021/10/17 09:58:55;;;;;;;11.50;7.40;;;16.20;99.90;;;;;;6155990;23;20005;-92
2021/10/17 10:01:23;;;;;;;10.77;7.18;;;16.20;99.90;;;;;;6155354;23;20449;-92
2021/10/17 10:03:50;;;;;;;10.48;7.82;;;16.20;99.90;;;;;;6155444;23;20007;-92
2021/10/17 10:06:18;;;;;;;8.80;7.05;;;16.30;99.90;;;;;;6182262;23;20005;-91
2021/10/17 10:08:45;;;;;;;8.88;6.65;;;16.40;99.90;;;;;;6181571;23;20055;-92
2021/10/17 10:11:11;;;;;;;9.10;6.57;;;16.60;99.90;;;;;;6155735;23;20338;-91
2021/10/17 10:13:40;;;;;;;8.65;6.28;;;16.70;99.90;;;;;;6181817;23;20001;-91
2021/10/17 10:16:07;;;;;;;13.55;5.75;;;16.80;99.90;;;;;;6182283;23;20036;-92
2021/10/17 10:18:37;;;;;;;9.13;5.88;;;16.90;99.90;;;;;;6181597;23;20048;-92
2021/10/17 10:21:05;;;;;;;9.45;6.18;;;16.90;99.90;;;;;;6155307;23;20420;-91
2021/10/17 10:23:31;;;;;;;9.57;6.60;;;16.80;99.90;;;;;;6156173;23;20323;-91
2021/10/17 10:25:57;;;;;;;10.05;6.43;;;16.70;99.90;;;;;;6183715;23;20445;-92
2021/10/17 10:28:26;;;;;;;9.30;7.15;;;16.80;99.90;;;;;;6157603;23;20009;-92
2021/10/17 10:30:51;;;;;;;10.27;7.38;;;17.00;99.90;;;;;;6183653;23;20104;-92
2021/10/17 10:33:21;;;;;;;10.15;7.10;;;17.10;99.90;;;;;;6157521;23;20045;-91
2021/10/17 10:36:09;;;;;;;15.60;6.63;;;17.20;99.90;;;;;;6157745;23;20001;-91
2021/10/17 10:38:53;;;;;;;11.35;6.20;;;17.30;99.90;;;;;;6157105;23;20540;-91
2021/10/17 10:41:28;;;;;;;9.10;5.78;;;17.60;99.90;;;;;;6157080;23;20331;-91
2021/10/17 10:44:12;;;;;;;9.43;6.47;;;17.70;99.90;;;;;;6157001;23;20024;-92
2021/10/17 10:46:38;;;;;;;7.68;5.90;;;17.90;99.90;;;;;;6183782;23;20020;-91
2021/10/17 10:49:04;;;;;;;8.48;6.20;;;18.00;99.90;;;;;;6157036;23;20005;-92
2021/10/17 10:51:40;;;;;;;8.60;5.90;;;18.20;99.90;;;;;;6183724;23;20005;-92
2021/10/17 10:54:24;;;;;;;7.82;5.80;;;18.50;99.90;;;;;;6184054;23;20000;-92
2021/10/17 10:56:55;;;;;;;6.78;5.28;;;18.70;99.90;;;;;;6183368;23;20081;-91
2021/10/17 10:59:25;;;;;;;11.07;5.60;;;18.70;99.90;;;;;;6181814;23;20005;-91
2021/10/17 11:02:02;;;;;;;11.13;5.80;;;18.70;99.90;;;;;;6183240;23;20032;-91
2021/10/17 11:04:54;;;;;;;12.65;8.35;;;18.90;99.90;;;;;;6156976;23;20386;-92
2021/10/17 11:07:38;;;;;;;7.57;5.70;;;19.00;99.90;;;;;;6137863;23;20018;-92
2021/10/17 11:10:22;;;;;;;6.73;5.23;;;18.90;99.90;;;;;;6167957;23;20013;-91
2021/10/17 11:12:55;;;;;;;9.63;5.90;;;18.80;99.90;;;;;;6156988;23;20092;-92
2021/10/17 11:15:24;;;;;;;6.55;5.43;;;18.70;99.90;;;;;;6156906;23;20000;-92
2021/10/17 11:18:17;;;;;;;9.18;5.63;;;18.50;99.90;;;;;;6156593;23;20009;-91
2021/10/17 11:20:47;;;;;;;6.47;5.10;;;18.10;99.90;;;;;;6151859;23;20550;-92
2021/10/17 11:23:33;;;;;;;7.45;5.20;;;18.00;99.90;;;;;;6156821;23;20062;-92
2021/10/17 11:26:10;;;;;;;7.07;5.20;;;17.90;99.90;;;;;;6181693;23;20113;-91
2021/10/17 11:28:39;;;;;;;7.25;4.72;;;18.00;99.90;;;;;;6157088;23;20442;-92
2021/10/17 11:31:04;;;;;;;7.60;4.97;;;18.20;99.90;;;;;;6156518;23;20013;-91
2021/10/17 11:33:30;;;;;;;8.23;4.85;;;18.50;99.90;;;;;;6182972;23;20085;-91
2021/10/17 11:35:57;;;;;;;11.45;4.50;;;18.70;99.90;;;;;;6155772;23;20497;-91
2021/10/17 11:38:23;;;;;;;6.10;4.68;;;18.90;99.90;;;;;;6157084;23;20316;-91
2021/10/17 11:40:49;;;;;;;8.30;4.50;;;19.10;99.90;;;;;;6156607;23;20028;-91
2021/10/17 11:43:16;;;;;;;6.15;4.97;;;19.20;99.90;;;;;;6182824;23;20021;-92
2021/10/17 11:45:47;;;;;;;6.35;4.50;;;19.40;99.90;;;;;;6157238;23;20460;-92
2021/10/17 11:48:15;;;;;;;7.97;4.60;;;19.70;99.90;;;;;;6156748;23;20092;-91
2021/10/17 11:50:43;;;;;;;6.07;4.20;;;19.90;99.90;;;;;;6182925;23;19997;-91
2021/10/17 11:53:17;;;;;;;8.55;4.20;;;20.20;99.90;;;;;;6184168;23;20084;-91
2021/10/17 11:55:49;;;;;;;4.97;3.90;;;20.40;99.90;;;;;;6156274;23;20028;-91
2021/10/17 11:58:16;;;;;;;5.80;3.83;;;20.50;99.90;;;;;;6156650;23;20005;-91
2021/10/17 12:00:43;;;;;;;5.78;3.83;;;20.50;99.90;;;;;;6183048;23;20009;-91
2021/10/17 12:03:09;;;;;;;6.20;4.05;;;20.60;99.90;;;;;;6183240;23;20001;-91
2021/10/17 12:05:43;;;;;;;4.97;3.50;;;20.60;99.90;;;;;;6183134;23;20001;-91
2021/10/17 12:08:19;;;;;;;5.30;3.80;;;20.60;99.90;;;;;;6182696;23;20005;-93
2021/10/17 12:10:54;;;;;;;4.93;3.42;;;20.90;99.90;;;;;;6182661;23;20001;-91
2021/10/17 12:13:20;;;;;;;4.95;3.67;;;20.80;99.90;;;;;;6156100;23;20095;-91
2021/10/17 12:15:46;;;;;;;6.88;4.47;;;20.90;99.90;;;;;;6182775;23;20032;-91
2021/10/17 12:18:12;;;;;;;6.60;3.80;;;20.90;99.90;;;;;;6156053;23;20469;-91
2021/10/17 12:20:38;;;;;;;5.82;3.47;;;20.80;99.90;;;;;;6182223;23;20016;-91
2021/10/17 12:23:04;;;;;;;6.95;3.97;;;20.80;99.90;;;;;;6183114;23;20001;-91
2021/10/17 12:25:30;;;;;;;5.38;3.30;;;20.70;99.90;;;;;;6156332;23;20354;-91
2021/10/17 12:27:56;;;;;;;5.63;3.20;;;20.70;99.90;;;;;;6182553;23;20077;-91
2021/10/17 12:30:33;;;;;;;11.80;3.85;;;20.70;99.90;;;;;;6182510;23;20045;-91
2021/10/17 12:33:00;;;;;;;6.97;4.20;;;20.80;99.90;;;;;;6156618;23;20012;-92
2021/10/17 12:35:33;;;;;;;5.00;3.60;;;20.50;99.90;;;;;;6183473;23;20215;-92
2021/10/17 12:38:14;;;;;;;5.88;3.22;;;20.50;99.90;;;;;;6156185;23;20513;-92
2021/10/17 12:41:13;;;;;;;4.28;3.35;;;20.60;99.90;;;;;;6156434;23;20115;-91